sensor_id;sensor_type;location;lat;lon;timestamp;P1;durP1;ratioP1;P2;durP2;ratioP2
39890;SDS011;25564;53.312;9.790;2023-06-24T00:02:23;9.17;;;5.70;;
39890;SDS011;25564;53.312;9.790;2023-06-24T00:04:55;10.33;;;5.77;;
39890;SDS011;25564;53.312;9.790;2023-06-24T00:07:31;9.93;;;5.03;;
39890;SDS011;25564;53.312;9.790;2023-06-24T00:10:02;7.20;;;4.80;;
39890;SDS011;25564;53.312;9.790;2023-06-24T00:12:34;11.63;;;5.20;;
39890;SDS011;25564;53.312;9.790;2023-06-24T00:15:06;10.37;;;5.30;;
39890;SDS011;25564;53.312;9.790;2023-06-24T00:17:43;10.33;;;5.27;;
39890;SDS011;25564;53.312;9.790;2023-06-24T00:20:14;11.77;;;5.67;;
39890;SDS011;25564;53.312;9.790;2023-06-24T00:22:49;8.53;;;5.13;;
39890;SDS011;25564;53.312;9.790;2023-06-24T00:25:20;10.03;;;6.57;;
39890;SDS011;25564;53.312;9.790;2023-06-24T00:27:51;9.10;;;5.23;;
39890;SDS011;25564;53.312;9.790;2023-06-24T00:30:23;8.13;;;5.07;;
39890;SDS011;25564;53.312;9.790;2023-06-24T00:32:54;10.23;;;5.80;;
39890;SDS011;25564;53.312;9.790;2023-06-24T00:35:26;8.40;;;5.30;;
39890;SDS011;25564;53.312;9.790;2023-06-24T00:37:57;12.60;;;6.47;;
39890;SDS011;25564;53.312;9.790;2023-06-24T00:40:29;15.07;;;6.13;;
39890;SDS011;25564;53.312;9.790;2023-06-24T00:43:01;12.57;;;6.00;;
39890;SDS011;25564;53.312;9.790;2023-06-24T00:45:33;9.17;;;5.80;;
39890;SDS011;25564;53.312;9.790;2023-06-24T00:48:05;11.23;;;6.20;;
39890;SDS011;25564;53.312;9.790;2023-06-24T00:50:36;9.70;;;6.27;;
39890;SDS011;25564;53.312;9.790;2023-06-24T00:53:08;15.23;;;5.43;;
39890;SDS011;25564;53.312;9.790;2023-06-24T00:55:39;11.40;;;6.20;;
39890;SDS011;25564;53.312;9.790;2023-06-24T00:58:11;14.70;;;7.40;;
39890;SDS011;25564;53.312;9.790;2023-06-24T01:03:28;10.10;;;6.40;;
39890;SDS011;25564;53.312;9.790;2023-06-24T01:06:00;12.37;;;6.53;;
39890;SDS011;25564;53.312;9.790;2023-06-24T01:08:32;11.10;;;6.37;;
39890;SDS011;25564;53.312;9.790;2023-06-24T01:11:03;10.93;;;6.43;;
39890;SDS011;25564;53.312;9.790;2023-06-24T01:13:35;15.27;;;7.73;;
39890;SDS011;25564;53.312;9.790;2023-06-24T01:16:06;10.27;;;5.97;;
39890;SDS011;25564;53.312;9.790;2023-06-24T01:22:19;12.82;;;6.20;;
39890;SDS011;25564;53.312;9.790;2023-06-24T01:25:10;13.37;;;6.70;;
39890;SDS011;25564;53.312;9.790;2023-06-24T01:30:50;11.03;;;5.80;;
39890;SDS011;25564;53.312;9.790;2023-06-24T01:33:46;14.63;;;6.50;;
39890;SDS011;25564;53.312;9.790;2023-06-24T01:36:33;11.73;;;7.23;;
39890;SDS011;25564;53.312;9.790;2023-06-24T01:39:08;12.17;;;6.83;;
39890;SDS011;25564;53.312;9.790;2023-06-24T01:41:43;10.77;;;6.13;;
39890;SDS011;25564;53.312;9.790;2023-06-24T01:44:18;11.20;;;6.20;;
39890;SDS011;25564;53.312;9.790;2023-06-24T01:46:51;14.23;;;6.60;;
39890;SDS011;25564;53.312;9.790;2023-06-24T01:49:29;11.50;;;6.55;;
39890;SDS011;25564;53.312;9.790;2023-06-24T01:52:04;13.73;;;6.90;;
39890;SDS011;25564;53.312;9.790;2023-06-24T01:54:38;13.90;;;7.07;;
39890;SDS011;25564;53.312;9.790;2023-06-24T01:57:12;11.63;;;6.80;;
39890;SDS011;25564;53.312;9.790;2023-06-24T01:59:45;12.50;;;7.40;;
39890;SDS011;25564;53.312;9.790;2023-06-24T02:02:17;14.73;;;6.83;;
39890;SDS011;25564;53.312;9.790;2023-06-24T02:04:51;13.80;;;7.03;;
39890;SDS011;25564;53.312;9.790;2023-06-24T02:07:24;10.33;;;6.37;;
39890;SDS011;25564;53.312;9.790;2023-06-24T02:09:57;12.20;;;6.90;;
39890;SDS011;25564;53.312;9.790;2023-06-24T02:12:30;11.10;;;5.87;;
39890;SDS011;25564;53.312;9.790;2023-06-24T02:15:02;12.20;;;6.50;;
39890;SDS011;25564;53.312;9.790;2023-06-24T02:17:37;11.63;;;6.13;;
39890;SDS011;25564;53.312;9.790;2023-06-24T02:20:10;12.67;;;6.40;;
39890;SDS011;25564;53.312;9.790;2023-06-24T02:22:43;12.47;;;7.70;;
39890;SDS011;25564;53.312;9.790;2023-06-24T02:25:15;13.10;;;6.93;;
39890;SDS011;25564;53.312;9.790;2023-06-24T02:27:47;12.67;;;7.13;;
39890;SDS011;25564;53.312;9.790;2023-06-24T02:30:19;11.73;;;6.57;;
39890;SDS011;25564;53.312;9.790;2023-06-24T02:32:52;15.90;;;6.60;;
39890;SDS011;25564;53.312;9.790;2023-06-24T02:35:23;12.20;;;7.10;;
39890;SDS011;25564;53.312;9.790;2023-06-24T02:37:55;13.13;;;6.73;;
39890;SDS011;25564;53.312;9.790;2023-06-24T02:40:26;10.40;;;6.23;;
39890;SDS011;25564;53.312;9.790;2023-06-24T02:42:59;15.07;;;6.87;;
39890;SDS011;25564;53.312;9.790;2023-06-24T02:45:30;12.37;;;7.23;;
39890;SDS011;25564;53.312;9.790;2023-06-24T02:48:03;14.77;;;6.73;;
39890;SDS011;25564;53.312;9.790;2023-06-24T02:50:36;10.87;;;6.37;;
39890;SDS011;25564;53.312;9.790;2023-06-24T02:53:12;13.10;;;6.73;;
39890;SDS011;25564;53.312;9.790;2023-06-24T02:55:44;9.90;;;6.45;;
39890;SDS011;25564;53.312;9.790;2023-06-24T02:58:16;14.53;;;6.43;;
39890;SDS011;25564;53.312;9.790;2023-06-24T03:00:48;11.87;;;5.90;;
39890;SDS011;25564;53.312;9.790;2023-06-24T03:03:21;15.40;;;7.07;;
39890;SDS011;25564;53.312;9.790;2023-06-24T03:05:53;13.27;;;7.20;;
39890;SDS011;25564;53.312;9.790;2023-06-24T03:08:25;12.63;;;6.67;;
39890;SDS011;25564;53.312;9.790;2023-06-24T03:10:58;11.00;;;6.13;;
39890;SDS011;25564;53.312;9.790;2023-06-24T03:13:29;10.77;;;5.53;;
39890;SDS011;25564;53.312;9.790;2023-06-24T03:16:00;9.73;;;5.27;;
39890;SDS011;25564;53.312;9.790;2023-06-24T03:18:32;9.83;;;5.20;;
39890;SDS011;25564;53.312;9.790;2023-06-24T03:21:03;10.43;;;5.23;;
39890;SDS011;25564;53.312;9.790;2023-06-24T03:23:35;11.03;;;5.87;;
39890;SDS011;25564;53.312;9.790;2023-06-24T03:26:06;10.43;;;5.67;;
39890;SDS011;25564;53.312;9.790;2023-06-24T03:28:40;8.70;;;5.47;;
39890;SDS011;25564;53.312;9.790;2023-06-24T03:31:12;9.40;;;5.67;;
39890;SDS011;25564;53.312;9.790;2023-06-24T03:33:47;11.27;;;6.10;;
39890;SDS011;25564;53.312;9.790;2023-06-24T03:36:18;11.90;;;6.93;;
39890;SDS011;25564;53.312;9.790;2023-06-24T03:38:51;12.17;;;6.10;;
39890;SDS011;25564;53.312;9.790;2023-06-24T03:41:22;14.93;;;7.60;;
39890;SDS011;25564;53.312;9.790;2023-06-24T03:43:54;12.23;;;6.70;;
39890;SDS011;25564;53.312;9.790;2023-06-24T03:46:26;13.13;;;7.70;;
39890;SDS011;25564;53.312;9.790;2023-06-24T03:49:00;15.40;;;7.30;;
39890;SDS011;25564;53.312;9.790;2023-06-24T03:51:31;14.03;;;7.73;;
39890;SDS011;25564;53.312;9.790;2023-06-24T03:54:03;11.57;;;7.33;;
39890;SDS011;25564;53.312;9.790;2023-06-24T03:56:34;12.03;;;7.23;;
39890;SDS011;25564;53.312;9.790;2023-06-24T03:59:06;10.30;;;6.03;;
39890;SDS011;25564;53.312;9.790;2023-06-24T04:01:37;11.13;;;6.20;;
39890;SDS011;25564;53.312;9.790;2023-06-24T04:04:08;13.87;;;5.97;;
39890;SDS011;25564;53.312;9.790;2023-06-24T04:06:40;9.37;;;5.03;;
39890;SDS011;25564;53.312;9.790;2023-06-24T04:09:11;8.43;;;5.30;;
39890;SDS011;25564;53.312;9.790;2023-06-24T04:11:42;11.83;;;6.27;;
39890;SDS011;25564;53.312;9.790;2023-06-24T04:14:14;10.40;;;6.37;;
39890;SDS011;25564;53.312;9.790;2023-06-24T04:16:45;13.30;;;5.63;;
39890;SDS011;25564;53.312;9.790;2023-06-24T04:19:17;10.97;;;5.57;;
39890;SDS011;25564;53.312;9.790;2023-06-24T04:21:48;11.90;;;6.57;;
39890;SDS011;25564;53.312;9.790;2023-06-24T04:24:19;15.57;;;8.03;;
39890;SDS011;25564;53.312;9.790;2023-06-24T04:26:51;15.60;;;7.87;;
39890;SDS011;25564;53.312;9.790;2023-06-24T04:29:22;16.13;;;8.53;;
39890;SDS011;25564;53.312;9.790;2023-06-24T04:31:54;11.93;;;7.07;;
39890;SDS011;25564;53.312;9.790;2023-06-24T04:34:25;13.77;;;7.00;;
39890;SDS011;25564;53.312;9.790;2023-06-24T04:36:57;15.93;;;8.07;;
39890;SDS011;25564;53.312;9.790;2023-06-24T04:39:28;16.90;;;8.97;;
39890;SDS011;25564;53.312;9.790;2023-06-24T04:41:59;14.57;;;8.00;;
39890;SDS011;25564;53.312;9.790;2023-06-24T04:44:31;17.37;;;8.50;;
39890;SDS011;25564;53.312;9.790;2023-06-24T04:47:02;17.07;;;8.23;;
39890;SDS011;25564;53.312;9.790;2023-06-24T04:49:34;15.47;;;8.57;;
39890;SDS011;25564;53.312;9.790;2023-06-24T04:52:06;16.55;;;8.23;;
39890;SDS011;25564;53.312;9.790;2023-06-24T04:54:37;16.57;;;7.93;;
39890;SDS011;25564;53.312;9.790;2023-06-24T04:57:09;14.15;;;7.55;;
39890;SDS011;25564;53.312;9.790;2023-06-24T04:59:55;15.60;;;8.13;;
39890;SDS011;25564;53.312;9.790;2023-06-24T05:02:26;14.95;;;7.90;;
39890;SDS011;25564;53.312;9.790;2023-06-24T05:04:58;13.25;;;8.43;;
39890;SDS011;25564;53.312;9.790;2023-06-24T05:07:30;13.98;;;8.32;;
39890;SDS011;25564;53.312;9.790;2023-06-24T05:10:01;11.95;;;7.53;;
39890;SDS011;25564;53.312;9.790;2023-06-24T05:12:33;14.90;;;8.70;;
39890;SDS011;25564;53.312;9.790;2023-06-24T05:15:04;13.48;;;8.85;;
39890;SDS011;25564;53.312;9.790;2023-06-24T05:17:36;14.43;;;9.00;;
39890;SDS011;25564;53.312;9.790;2023-06-24T05:20:08;15.50;;;8.50;;
39890;SDS011;25564;53.312;9.790;2023-06-24T05:22:39;14.35;;;8.57;;
39890;SDS011;25564;53.312;9.790;2023-06-24T05:25:11;14.20;;;8.65;;
39890;SDS011;25564;53.312;9.790;2023-06-24T05:27:42;16.20;;;8.35;;
39890;SDS011;25564;53.312;9.790;2023-06-24T05:30:15;19.20;;;9.30;;
39890;SDS011;25564;53.312;9.790;2023-06-24T05:32:47;16.63;;;9.13;;
39890;SDS011;25564;53.312;9.790;2023-06-24T05:35:18;16.90;;;9.50;;
39890;SDS011;25564;53.312;9.790;2023-06-24T05:37:50;17.00;;;8.55;;
39890;SDS011;25564;53.312;9.790;2023-06-24T05:40:21;16.63;;;9.10;;
39890;SDS011;25564;53.312;9.790;2023-06-24T05:42:52;17.50;;;9.57;;
39890;SDS011;25564;53.312;9.790;2023-06-24T05:45:24;17.95;;;9.30;;
39890;SDS011;25564;53.312;9.790;2023-06-24T05:47:55;20.23;;;9.63;;
39890;SDS011;25564;53.312;9.790;2023-06-24T05:50:27;17.45;;;9.43;;
39890;SDS011;25564;53.312;9.790;2023-06-24T05:52:58;19.73;;;8.88;;
39890;SDS011;25564;53.312;9.790;2023-06-24T05:55:29;17.73;;;9.73;;
39890;SDS011;25564;53.312;9.790;2023-06-24T05:58:01;17.13;;;9.60;;
39890;SDS011;25564;53.312;9.790;2023-06-24T06:00:32;17.00;;;8.80;;
39890;SDS011;25564;53.312;9.790;2023-06-24T06:03:03;14.13;;;8.52;;
39890;SDS011;25564;53.312;9.790;2023-06-24T06:05:35;18.90;;;8.70;;
39890;SDS011;25564;53.312;9.790;2023-06-24T06:08:07;15.02;;;8.55;;
39890;SDS011;25564;53.312;9.790;2023-06-24T06:10:38;19.92;;;9.52;;
39890;SDS011;25564;53.312;9.790;2023-06-24T06:13:10;18.10;;;9.82;;
39890;SDS011;25564;53.312;9.790;2023-06-24T06:15:41;14.40;;;8.40;;
39890;SDS011;25564;53.312;9.790;2023-06-24T06:18:12;15.00;;;8.23;;
39890;SDS011;25564;53.312;9.790;2023-06-24T06:20:44;16.38;;;9.15;;
39890;SDS011;25564;53.312;9.790;2023-06-24T06:23:16;16.15;;;8.45;;
39890;SDS011;25564;53.312;9.790;2023-06-24T06:25:48;15.88;;;9.20;;
39890;SDS011;25564;53.312;9.790;2023-06-24T06:28:19;17.30;;;8.82;;
39890;SDS011;25564;53.312;9.790;2023-06-24T06:30:51;17.33;;;8.65;;
39890;SDS011;25564;53.312;9.790;2023-06-24T06:33:22;14.90;;;8.95;;
39890;SDS011;25564;53.312;9.790;2023-06-24T06:35:54;12.68;;;8.23;;
39890;SDS011;25564;53.312;9.790;2023-06-24T06:38:25;14.13;;;8.32;;
39890;SDS011;25564;53.312;9.790;2023-06-24T06:40:58;15.57;;;8.70;;
39890;SDS011;25564;53.312;9.790;2023-06-24T06:43:29;16.05;;;8.65;;
39890;SDS011;25564;53.312;9.790;2023-06-24T06:46:00;12.27;;;8.10;;
39890;SDS011;25564;53.312;9.790;2023-06-24T06:48:32;12.65;;;7.65;;
39890;SDS011;25564;53.312;9.790;2023-06-24T06:51:03;10.90;;;6.13;;
39890;SDS011;25564;53.312;9.790;2023-06-24T06:53:35;10.98;;;6.85;;
39890;SDS011;25564;53.312;9.790;2023-06-24T06:56:06;11.40;;;6.72;;
39890;SDS011;25564;53.312;9.790;2023-06-24T06:58:38;8.13;;;5.57;;
39890;SDS011;25564;53.312;9.790;2023-06-24T07:01:13;10.68;;;6.30;;
39890;SDS011;25564;53.312;9.790;2023-06-24T07:06:21;10.27;;;5.18;;
39890;SDS011;25564;53.312;9.790;2023-06-24T07:08:52;10.10;;;5.47;;
39890;SDS011;25564;53.312;9.790;2023-06-24T07:11:24;11.82;;;5.97;;
39890;SDS011;25564;53.312;9.790;2023-06-24T07:13:55;7.88;;;4.75;;
39890;SDS011;25564;53.312;9.790;2023-06-24T07:16:27;8.23;;;5.25;;
39890;SDS011;25564;53.312;9.790;2023-06-24T07:18:58;12.02;;;5.95;;
39890;SDS011;25564;53.312;9.790;2023-06-24T07:21:29;7.70;;;4.80;;
39890;SDS011;25564;53.312;9.790;2023-06-24T07:24:01;7.25;;;4.05;;
39890;SDS011;25564;53.312;9.790;2023-06-24T07:26:32;6.43;;;3.60;;
39890;SDS011;25564;53.312;9.790;2023-06-24T07:29:05;8.55;;;3.30;;
39890;SDS011;25564;53.312;9.790;2023-06-24T07:31:40;6.80;;;3.58;;
39890;SDS011;25564;53.312;9.790;2023-06-24T07:34:11;7.63;;;4.45;;
39890;SDS011;25564;53.312;9.790;2023-06-24T07:36:43;8.05;;;4.47;;
39890;SDS011;25564;53.312;9.790;2023-06-24T07:39:14;6.25;;;4.07;;
39890;SDS011;25564;53.312;9.790;2023-06-24T07:41:46;7.50;;;4.55;;
39890;SDS011;25564;53.312;9.790;2023-06-24T07:44:18;7.05;;;4.38;;
39890;SDS011;25564;53.312;9.790;2023-06-24T07:46:50;6.65;;;4.13;;
39890;SDS011;25564;53.312;9.790;2023-06-24T07:49:22;5.82;;;3.97;;
39890;SDS011;25564;53.312;9.790;2023-06-24T07:51:53;6.32;;;3.97;;
39890;SDS011;25564;53.312;9.790;2023-06-24T07:54:25;6.25;;;3.47;;
39890;SDS011;25564;53.312;9.790;2023-06-24T07:56:56;5.95;;;3.45;;
39890;SDS011;25564;53.312;9.790;2023-06-24T07:59:27;7.30;;;3.78;;
39890;SDS011;25564;53.312;9.790;2023-06-24T08:01:59;5.72;;;3.63;;
39890;SDS011;25564;53.312;9.790;2023-06-24T08:04:30;5.25;;;3.65;;
39890;SDS011;25564;53.312;9.790;2023-06-24T08:07:02;7.40;;;3.97;;
39890;SDS011;25564;53.312;9.790;2023-06-24T08:09:34;5.80;;;3.22;;
39890;SDS011;25564;53.312;9.790;2023-06-24T08:12:06;7.43;;;3.85;;
39890;SDS011;25564;53.312;9.790;2023-06-24T08:14:37;7.30;;;3.75;;
39890;SDS011;25564;53.312;9.790;2023-06-24T08:17:09;6.63;;;3.95;;
39890;SDS011;25564;53.312;9.790;2023-06-24T08:19:40;3.85;;;2.95;;
39890;SDS011;25564;53.312;9.790;2023-06-24T08:22:11;6.05;;;3.60;;
39890;SDS011;25564;53.312;9.790;2023-06-24T08:24:43;6.05;;;3.28;;
39890;SDS011;25564;53.312;9.790;2023-06-24T08:27:14;7.72;;;4.15;;
39890;SDS011;25564;53.312;9.790;2023-06-24T08:29:45;9.32;;;3.70;;
39890;SDS011;25564;53.312;9.790;2023-06-24T08:32:17;5.90;;;2.85;;
39890;SDS011;25564;53.312;9.790;2023-06-24T08:34:48;5.15;;;3.00;;
39890;SDS011;25564;53.312;9.790;2023-06-24T08:37:24;6.47;;;2.80;;
39890;SDS011;25564;53.312;9.790;2023-06-24T08:39:55;7.18;;;4.20;;
39890;SDS011;25564;53.312;9.790;2023-06-24T08:42:27;6.57;;;3.50;;
39890;SDS011;25564;53.312;9.790;2023-06-24T08:44:58;4.30;;;2.95;;
39890;SDS011;25564;53.312;9.790;2023-06-24T08:47:29;4.18;;;3.30;;
39890;SDS011;25564;53.312;9.790;2023-06-24T08:50:05;5.28;;;3.03;;
39890;SDS011;25564;53.312;9.790;2023-06-24T08:52:42;6.38;;;3.45;;
39890;SDS011;25564;53.312;9.790;2023-06-24T08:55:21;5.22;;;3.47;;
39890;SDS011;25564;53.312;9.790;2023-06-24T08:57:54;6.10;;;3.08;;
39890;SDS011;25564;53.312;9.790;2023-06-24T09:00:26;4.40;;;3.00;;
39890;SDS011;25564;53.312;9.790;2023-06-24T09:02:58;4.68;;;3.10;;
39890;SDS011;25564;53.312;9.790;2023-06-24T09:05:30;4.32;;;3.20;;
39890;SDS011;25564;53.312;9.790;2023-06-24T09:08:01;6.72;;;3.67;;
39890;SDS011;25564;53.312;9.790;2023-06-24T09:10:33;5.57;;;3.40;;
39890;SDS011;25564;53.312;9.790;2023-06-24T09:13:07;5.72;;;3.65;;
39890;SDS011;25564;53.312;9.790;2023-06-24T09:15:38;7.35;;;3.90;;
39890;SDS011;25564;53.312;9.790;2023-06-24T09:18:10;6.70;;;3.50;;
39890;SDS011;25564;53.312;9.790;2023-06-24T09:20:42;7.28;;;3.88;;
39890;SDS011;25564;53.312;9.790;2023-06-24T09:23:16;6.07;;;4.22;;
39890;SDS011;25564;53.312;9.790;2023-06-24T09:25:55;8.07;;;3.63;;
39890;SDS011;25564;53.312;9.790;2023-06-24T09:28:28;4.78;;;3.20;;
39890;SDS011;25564;53.312;9.790;2023-06-24T09:31:08;9.70;;;4.20;;
39890;SDS011;25564;53.312;9.790;2023-06-24T09:33:50;6.05;;;3.30;;
39890;SDS011;25564;53.312;9.790;2023-06-24T09:36:21;7.70;;;3.83;;
39890;SDS011;25564;53.312;9.790;2023-06-24T09:38:53;7.00;;;3.53;;
39890;SDS011;25564;53.312;9.790;2023-06-24T09:41:28;6.50;;;3.75;;
39890;SDS011;25564;53.312;9.790;2023-06-24T09:43:59;6.75;;;3.88;;
39890;SDS011;25564;53.312;9.790;2023-06-24T09:46:31;8.38;;;4.55;;
39890;SDS011;25564;53.312;9.790;2023-06-24T09:49:04;7.35;;;3.67;;
39890;SDS011;25564;53.312;9.790;2023-06-24T09:51:37;5.40;;;3.55;;
39890;SDS011;25564;53.312;9.790;2023-06-24T09:54:11;6.35;;;3.42;;
39890;SDS011;25564;53.312;9.790;2023-06-24T09:56:50;5.55;;;3.20;;
39890;SDS011;25564;53.312;9.790;2023-06-24T09:59:24;6.75;;;3.53;;
39890;SDS011;25564;53.312;9.790;2023-06-24T10:01:56;5.93;;;3.10;;
39890;SDS011;25564;53.312;9.790;2023-06-24T10:04:29;5.90;;;3.83;;
39890;SDS011;25564;53.312;9.790;2023-06-24T10:07:00;8.00;;;3.97;;
39890;SDS011;25564;53.312;9.790;2023-06-24T10:09:33;6.65;;;3.53;;
39890;SDS011;25564;53.312;9.790;2023-06-24T10:12:05;7.05;;;3.65;;
39890;SDS011;25564;53.312;9.790;2023-06-24T10:14:37;6.45;;;3.30;;
39890;SDS011;25564;53.312;9.790;2023-06-24T10:17:09;5.53;;;3.08;;
39890;SDS011;25564;53.312;9.790;2023-06-24T10:19:42;4.78;;;3.05;;
39890;SDS011;25564;53.312;9.790;2023-06-24T10:22:15;6.22;;;3.20;;
39890;SDS011;25564;53.312;9.790;2023-06-24T10:24:47;6.07;;;3.17;;
39890;SDS011;25564;53.312;9.790;2023-06-24T10:27:21;6.63;;;3.13;;
39890;SDS011;25564;53.312;9.790;2023-06-24T10:29:53;4.68;;;3.00;;
39890;SDS011;25564;53.312;9.790;2023-06-24T10:32:27;5.00;;;3.40;;
39890;SDS011;25564;53.312;9.790;2023-06-24T10:35:24;5.70;;;3.00;;
39890;SDS011;25564;53.312;9.790;2023-06-24T10:37:58;5.28;;;2.97;;
39890;SDS011;25564;53.312;9.790;2023-06-24T10:40:39;5.72;;;3.35;;
39890;SDS011;25564;53.312;9.790;2023-06-24T10:43:28;8.27;;;3.78;;
39890;SDS011;25564;53.312;9.790;2023-06-24T10:46:00;5.07;;;3.38;;
39890;SDS011;25564;53.312;9.790;2023-06-24T10:48:31;6.65;;;3.60;;
39890;SDS011;25564;53.312;9.790;2023-06-24T10:51:03;5.70;;;2.65;;
39890;SDS011;25564;53.312;9.790;2023-06-24T10:53:34;6.95;;;3.22;;
39890;SDS011;25564;53.312;9.790;2023-06-24T10:56:06;5.47;;;3.10;;
39890;SDS011;25564;53.312;9.790;2023-06-24T10:58:37;5.60;;;2.72;;
39890;SDS011;25564;53.312;9.790;2023-06-24T11:01:09;6.28;;;2.97;;
39890;SDS011;25564;53.312;9.790;2023-06-24T11:03:40;5.15;;;2.70;;
39890;SDS011;25564;53.312;9.790;2023-06-24T11:06:13;5.70;;;2.50;;
39890;SDS011;25564;53.312;9.790;2023-06-24T11:08:44;3.40;;;2.33;;
39890;SDS011;25564;53.312;9.790;2023-06-24T11:11:19;5.13;;;3.03;;
39890;SDS011;25564;53.312;9.790;2023-06-24T11:13:52;8.02;;;2.72;;
39890;SDS011;25564;53.312;9.790;2023-06-24T11:16:26;5.70;;;2.50;;
39890;SDS011;25564;53.312;9.790;2023-06-24T11:19:00;5.93;;;2.95;;
39890;SDS011;25564;53.312;9.790;2023-06-24T11:21:32;3.67;;;2.67;;
39890;SDS011;25564;53.312;9.790;2023-06-24T11:24:04;5.65;;;3.15;;
39890;SDS011;25564;53.312;9.790;2023-06-24T11:26:36;5.43;;;2.90;;
39890;SDS011;25564;53.312;9.790;2023-06-24T11:29:11;4.80;;;2.83;;
39890;SDS011;25564;53.312;9.790;2023-06-24T11:31:44;5.00;;;2.80;;
39890;SDS011;25564;53.312;9.790;2023-06-24T11:34:16;7.95;;;3.47;;
39890;SDS011;25564;53.312;9.790;2023-06-24T11:36:48;3.92;;;2.40;;
39890;SDS011;25564;53.312;9.790;2023-06-24T11:39:20;6.63;;;2.67;;
39890;SDS011;25564;53.312;9.790;2023-06-24T11:41:52;4.78;;;2.17;;
39890;SDS011;25564;53.312;9.790;2023-06-24T11:44:24;4.15;;;3.00;;
39890;SDS011;25564;53.312;9.790;2023-06-24T11:47:02;5.32;;;2.78;;
39890;SDS011;25564;53.312;9.790;2023-06-24T11:52:31;4.70;;;2.60;;
39890;SDS011;25564;53.312;9.790;2023-06-24T11:55:04;4.93;;;2.92;;
39890;SDS011;25564;53.312;9.790;2023-06-24T11:58:02;4.05;;;2.45;;
39890;SDS011;25564;53.312;9.790;2023-06-24T12:00:41;3.60;;;2.38;;
39890;SDS011;25564;53.312;9.790;2023-06-24T12:03:13;4.13;;;2.20;;
39890;SDS011;25564;53.312;9.790;2023-06-24T12:05:46;4.50;;;2.55;;
39890;SDS011;25564;53.312;9.790;2023-06-24T12:08:18;5.10;;;3.13;;
39890;SDS011;25564;53.312;9.790;2023-06-24T12:10:49;4.95;;;2.88;;
39890;SDS011;25564;53.312;9.790;2023-06-24T12:13:21;4.55;;;2.95;;
39890;SDS011;25564;53.312;9.790;2023-06-24T12:15:52;7.18;;;2.72;;
39890;SDS011;25564;53.312;9.790;2023-06-24T12:18:24;5.15;;;2.92;;
39890;SDS011;25564;53.312;9.790;2023-06-24T12:20:55;4.38;;;2.60;;
39890;SDS011;25564;53.312;9.790;2023-06-24T12:23:27;5.75;;;2.72;;
39890;SDS011;25564;53.312;9.790;2023-06-24T12:25:58;3.92;;;2.38;;
39890;SDS011;25564;53.312;9.790;2023-06-24T12:28:29;4.32;;;2.70;;
39890;SDS011;25564;53.312;9.790;2023-06-24T12:31:01;5.57;;;2.80;;
39890;SDS011;25564;53.312;9.790;2023-06-24T12:33:32;6.20;;;2.33;;
39890;SDS011;25564;53.312;9.790;2023-06-24T12:36:04;3.00;;;2.20;;
39890;SDS011;25564;53.312;9.790;2023-06-24T12:38:35;3.28;;;2.10;;
39890;SDS011;25564;53.312;9.790;2023-06-24T12:41:07;4.85;;;2.90;;
39890;SDS011;25564;53.312;9.790;2023-06-24T12:43:39;4.60;;;2.38;;
39890;SDS011;25564;53.312;9.790;2023-06-24T12:46:11;4.47;;;2.35;;
39890;SDS011;25564;53.312;9.790;2023-06-24T12:48:42;4.93;;;2.55;;
39890;SDS011;25564;53.312;9.790;2023-06-24T12:51:14;5.32;;;2.20;;
39890;SDS011;25564;53.312;9.790;2023-06-24T12:53:46;5.15;;;2.38;;
39890;SDS011;25564;53.312;9.790;2023-06-24T12:56:17;6.18;;;2.97;;
39890;SDS011;25564;53.312;9.790;2023-06-24T12:58:48;3.80;;;2.35;;
39890;SDS011;25564;53.312;9.790;2023-06-24T13:01:20;4.18;;;2.63;;
39890;SDS011;25564;53.312;9.790;2023-06-24T13:03:51;4.70;;;2.60;;
39890;SDS011;25564;53.312;9.790;2023-06-24T13:06:23;3.97;;;2.50;;
39890;SDS011;25564;53.312;9.790;2023-06-24T13:08:54;4.40;;;2.80;;
39890;SDS011;25564;53.312;9.790;2023-06-24T13:11:25;4.45;;;3.00;;
39890;SDS011;25564;53.312;9.790;2023-06-24T13:13:57;6.00;;;3.03;;
39890;SDS011;25564;53.312;9.790;2023-06-24T13:16:29;8.10;;;3.05;;
39890;SDS011;25564;53.312;9.790;2023-06-24T13:19:00;5.65;;;3.13;;
39890;SDS011;25564;53.312;9.790;2023-06-24T13:21:32;7.03;;;3.20;;
39890;SDS011;25564;53.312;9.790;2023-06-24T13:24:03;5.95;;;2.55;;
39890;SDS011;25564;53.312;9.790;2023-06-24T13:26:35;3.72;;;2.70;;
39890;SDS011;25564;53.312;9.790;2023-06-24T13:29:06;5.15;;;2.75;;
39890;SDS011;25564;53.312;9.790;2023-06-24T13:31:38;3.53;;;2.50;;
39890;SDS011;25564;53.312;9.790;2023-06-24T13:34:10;3.50;;;2.35;;
39890;SDS011;25564;53.312;9.790;2023-06-24T13:36:42;3.85;;;2.78;;
39890;SDS011;25564;53.312;9.790;2023-06-24T13:39:14;4.80;;;2.90;;
39890;SDS011;25564;53.312;9.790;2023-06-24T13:41:48;4.65;;;2.67;;
39890;SDS011;25564;53.312;9.790;2023-06-24T13:44:19;4.00;;;2.80;;
39890;SDS011;25564;53.312;9.790;2023-06-24T13:46:52;5.38;;;2.60;;
39890;SDS011;25564;53.312;9.790;2023-06-24T13:49:25;4.10;;;2.42;;
39890;SDS011;25564;53.312;9.790;2023-06-24T13:51:56;4.82;;;2.50;;
39890;SDS011;25564;53.312;9.790;2023-06-24T13:54:28;7.15;;;3.08;;
39890;SDS011;25564;53.312;9.790;2023-06-24T13:57:03;3.75;;;2.50;;
39890;SDS011;25564;53.312;9.790;2023-06-24T13:59:35;3.55;;;2.67;;
39890;SDS011;25564;53.312;9.790;2023-06-24T14:02:06;4.75;;;2.80;;
39890;SDS011;25564;53.312;9.790;2023-06-24T14:04:40;3.78;;;2.70;;
39890;SDS011;25564;53.312;9.790;2023-06-24T14:07:11;4.25;;;2.47;;
39890;SDS011;25564;53.312;9.790;2023-06-24T14:09:42;5.18;;;2.22;;
39890;SDS011;25564;53.312;9.790;2023-06-24T14:12:14;4.13;;;2.70;;
39890;SDS011;25564;53.312;9.790;2023-06-24T14:14:45;4.03;;;2.30;;
39890;SDS011;25564;53.312;9.790;2023-06-24T14:17:17;3.65;;;2.30;;
39890;SDS011;25564;53.312;9.790;2023-06-24T14:19:48;4.45;;;2.75;;
39890;SDS011;25564;53.312;9.790;2023-06-24T14:22:20;5.22;;;2.80;;
39890;SDS011;25564;53.312;9.790;2023-06-24T14:24:53;4.93;;;2.65;;
39890;SDS011;25564;53.312;9.790;2023-06-24T14:27:25;3.58;;;2.30;;
39890;SDS011;25564;53.312;9.790;2023-06-24T14:29:56;4.80;;;2.83;;
39890;SDS011;25564;53.312;9.790;2023-06-24T14:32:29;3.28;;;2.33;;
39890;SDS011;25564;53.312;9.790;2023-06-24T14:35:03;2.67;;;2.05;;
39890;SDS011;25564;53.312;9.790;2023-06-24T14:37:36;6.00;;;2.30;;
39890;SDS011;25564;53.312;9.790;2023-06-24T14:40:08;8.57;;;2.40;;
39890;SDS011;25564;53.312;9.790;2023-06-24T14:42:43;3.80;;;2.28;;
39890;SDS011;25564;53.312;9.790;2023-06-24T14:45:14;3.40;;;2.30;;
39890;SDS011;25564;53.312;9.790;2023-06-24T14:47:46;5.03;;;2.75;;
39890;SDS011;25564;53.312;9.790;2023-06-24T14:50:17;4.60;;;2.45;;
39890;SDS011;25564;53.312;9.790;2023-06-24T14:52:49;4.28;;;2.42;;
39890;SDS011;25564;53.312;9.790;2023-06-24T14:55:21;3.15;;;2.10;;
39890;SDS011;25564;53.312;9.790;2023-06-24T14:57:55;4.03;;;2.33;;
39890;SDS011;25564;53.312;9.790;2023-06-24T15:00:27;3.13;;;2.17;;
39890;SDS011;25564;53.312;9.790;2023-06-24T15:02:59;4.80;;;2.13;;
39890;SDS011;25564;53.312;9.790;2023-06-24T15:05:31;4.45;;;2.13;;
39890;SDS011;25564;53.312;9.790;2023-06-24T15:08:05;6.40;;;2.33;;
39890;SDS011;25564;53.312;9.790;2023-06-24T15:10:36;4.82;;;2.30;;
39890;SDS011;25564;53.312;9.790;2023-06-24T15:13:08;4.97;;;2.45;;
39890;SDS011;25564;53.312;9.790;2023-06-24T15:15:40;3.63;;;2.28;;
39890;SDS011;25564;53.312;9.790;2023-06-24T15:18:11;3.83;;;2.55;;
39890;SDS011;25564;53.312;9.790;2023-06-24T15:20:43;4.00;;;2.53;;
39890;SDS011;25564;53.312;9.790;2023-06-24T15:23:14;3.63;;;2.45;;
39890;SDS011;25564;53.312;9.790;2023-06-24T15:25:46;6.38;;;2.67;;
39890;SDS011;25564;53.312;9.790;2023-06-24T15:28:17;4.70;;;2.33;;
39890;SDS011;25564;53.312;9.790;2023-06-24T15:30:49;5.03;;;2.85;;